Lumberville, Pennsylvania
Current Conditions -  °F | °C
As of 12:54 AM on Thursday 23 Oct 2014 (Local Time) from KDYL Reporting Station
Light Rain Light Rain  
Wind Chill: 44°   Ceiling: 4200
Heat Index: 49°   Visibility: 10mi
Dew Point: 48°   Wind: 12mph
Humidity: 97%   Direction: 340°NNW
Pressure: 29.77"   Gusts: 22mph
Location:  40.41°N, 75.04°W
Report Text: KDYL 230454Z AUTO 34010G19KT 10SM -RA FEW022 OVC042 09/09 A2977 RMK AO2 SLP081 P0005 T00940089 401170094 $
Loading
Personal Weather Stations






























Interactive Weather Map
Tropical Storm Tracking
New forecast layout! Learn more

10-Day Weather Forecast

Advertisements
Track Severe Weather on mobile